Time;durP1;ratioP1;P1;durP2;ratioP2;P2;SDS_P1;SDS_P2;PMS_P1;PMS_P2;Temp;Humidity;BMP_temperature;BMP_pressure;BME280_temperature;BME280_humidity;BME280_pressure;Samples;Min_cycle;Max_cycle;Signal;HPM_P1;HPM_P2
2023/09/02 00:01:23;;;;;;;3.50;2.57;;;15.20;99.90;;;;;;5042615;28;20202;-59
2023/09/02 00:03:49;;;;;;;2.80;2.60;;;15.20;99.90;;;;;;5042244;28;20223;-59
2023/09/02 00:06:15;;;;;;;4.50;2.70;;;15.20;99.90;;;;;;5044980;28;20209;-59
2023/09/02 00:08:41;;;;;;;7.37;2.90;;;15.20;99.90;;;;;;5044308;28;20179;-59
2023/09/02 00:11:06;;;;;;;5.70;2.73;;;15.10;99.90;;;;;;5042743;28;20246;-59
2023/09/02 00:13:32;;;;;;;9.63;3.10;;;15.10;99.90;;;;;;5045824;28;20941;-58
2023/09/02 00:15:57;;;;;;;5.20;3.03;;;15.10;99.90;;;;;;5042577;28;20186;-58
2023/09/02 00:18:23;;;;;;;5.53;2.87;;;15.10;99.90;;;;;;5044291;28;20183;-59
2023/09/02 00:20:49;;;;;;;4.47;3.10;;;15.10;99.90;;;;;;5039700;28;20184;-60
2023/09/02 00:23:14;;;;;;;7.90;2.73;;;15.10;99.90;;;;;;5038363;28;20237;-59
2023/09/02 00:25:40;;;;;;;5.53;3.30;;;15.00;99.90;;;;;;5041720;28;20236;-59
2023/09/02 00:28:05;;;;;;;4.90;2.60;;;15.00;99.90;;;;;;5047254;28;20711;-58
2023/09/02 00:30:31;;;;;;;3.90;2.63;;;15.00;99.90;;;;;;5045890;28;20176;-60
2023/09/02 00:32:56;;;;;;;5.00;2.80;;;14.90;99.90;;;;;;5035560;28;20214;-59
2023/09/02 00:35:22;;;;;;;6.37;3.40;;;14.90;99.90;;;;;;5039546;28;20971;-59
2023/09/02 00:37:48;;;;;;;2.60;2.40;;;14.90;99.90;;;;;;5045859;28;20194;-59
2023/09/02 00:40:17;;;;;;;5.40;2.57;;;14.80;99.90;;;;;;5040289;28;20182;-59
2023/09/02 00:42:44;;;;;;;4.73;2.30;;;14.70;99.90;;;;;;5041431;28;20227;-58
2023/09/02 00:45:10;;;;;;;4.60;2.73;;;14.70;99.90;;;;;;5034140;28;20434;-58
2023/09/02 00:47:36;;;;;;;3.20;2.57;;;14.60;99.90;;;;;;5045118;28;20483;-58
2023/09/02 00:50:02;;;;;;;3.80;2.73;;;14.60;99.90;;;;;;5041018;28;20848;-59
2023/09/02 00:52:27;;;;;;;4.50;2.47;;;14.60;99.90;;;;;;5038248;28;20715;-59
2023/09/02 00:54:53;;;;;;;5.63;3.40;;;14.50;99.90;;;;;;5044433;28;20444;-58
2023/09/02 00:57:19;;;;;;;7.53;4.77;;;14.50;99.90;;;;;;5039225;28;20212;-57
2023/09/02 00:59:44;;;;;;;5.93;3.40;;;14.50;99.90;;;;;;5039516;28;20788;-59
2023/09/02 01:02:11;;;;;;;5.27;2.70;;;14.50;99.90;;;;;;5044212;28;21008;-59
2023/09/02 01:04:36;;;;;;;8.97;2.90;;;14.50;99.90;;;;;;5043152;28;22336;-58
2023/09/02 01:07:02;;;;;;;3.60;2.80;;;14.40;99.90;;;;;;5044975;28;20453;-58
2023/09/02 01:09:30;;;;;;;3.37;3.00;;;14.40;99.90;;;;;;5044677;28;20187;-58
2023/09/02 01:11:56;;;;;;;6.80;2.80;;;14.40;99.90;;;;;;5043760;28;20469;-58
2023/09/02 01:14:22;;;;;;;4.73;2.57;;;14.40;99.90;;;;;;5043795;28;20500;-58
2023/09/02 01:16:47;;;;;;;4.10;2.63;;;14.40;99.90;;;;;;5039119;28;20274;-58
2023/09/02 01:19:17;;;;;;;4.70;2.53;;;14.40;99.90;;;;;;5042962;28;20213;-58
2023/09/02 01:22:03;;;;;;;4.37;2.67;;;14.30;99.90;;;;;;5044171;28;20261;-59
2023/09/02 01:24:50;;;;;;;3.90;2.40;;;14.30;99.90;;;;;;5040199;28;20480;-57
2023/09/02 01:27:18;;;;;;;5.30;3.23;;;14.20;99.90;;;;;;5040314;28;20461;-58
2023/09/02 01:29:56;;;;;;;5.20;2.63;;;14.20;99.90;;;;;;5038097;28;20427;-58
2023/09/02 01:32:26;;;;;;;8.57;2.90;;;14.10;99.90;;;;;;5042707;28;20433;-57
2023/09/02 01:34:54;;;;;;;7.17;2.50;;;14.10;99.90;;;;;;5043337;28;20445;-58
2023/09/02 01:37:22;;;;;;;3.80;2.83;;;14.10;99.90;;;;;;5035528;28;20437;-58
2023/09/02 01:39:50;;;;;;;4.03;2.80;;;14.10;99.90;;;;;;5042633;28;20440;-57
2023/09/02 01:42:17;;;;;;;7.23;2.67;;;14.10;99.90;;;;;;5038440;28;20441;-57
2023/09/02 01:44:44;;;;;;;10.57;2.40;;;14.10;99.90;;;;;;5036107;28;20469;-59
2023/09/02 01:47:11;;;;;;;7.57;2.93;;;14.00;99.90;;;;;;5042021;28;20425;-57
2023/09/02 01:49:38;;;;;;;5.73;2.50;;;14.00;99.90;;;;;;5040808;28;20464;-57
2023/09/02 01:52:04;;;;;;;4.63;2.50;;;14.00;99.90;;;;;;5042818;28;20426;-58
2023/09/02 01:54:31;;;;;;;3.73;2.20;;;14.00;99.90;;;;;;5035793;28;20523;-58
2023/09/02 01:56:57;;;;;;;4.90;2.47;;;13.90;99.90;;;;;;5045276;28;20468;-58
2023/09/02 01:59:23;;;;;;;4.60;2.23;;;13.90;99.90;;;;;;5041572;28;20525;-58
2023/09/02 02:01:49;;;;;;;4.60;2.70;;;13.90;99.90;;;;;;5042401;28;20942;-59
2023/09/02 02:04:27;;;;;;;6.10;2.63;;;13.90;99.90;;;;;;5043995;28;20700;-58
2023/09/02 02:06:59;;;;;;;3.40;2.60;;;13.90;99.90;;;;;;5037709;28;20189;-58
2023/09/02 02:09:38;;;;;;;4.00;2.97;;;13.90;99.90;;;;;;5037071;28;21093;-58
2023/09/02 02:12:04;;;;;;;4.70;2.37;;;13.80;99.90;;;;;;5041594;28;20413;-58
2023/09/02 02:14:33;;;;;;;4.57;2.50;;;13.80;99.90;;;;;;5041230;28;20445;-59
2023/09/02 02:16:59;;;;;;;2.53;2.23;;;13.80;99.90;;;;;;5041593;28;20224;-57
2023/09/02 02:19:24;;;;;;;4.37;2.33;;;13.80;99.90;;;;;;5044424;28;20956;-57
2023/09/02 02:21:51;;;;;;;7.93;3.73;;;13.70;99.90;;;;;;5043687;28;20437;-57
2023/09/02 02:24:16;;;;;;;3.07;2.30;;;13.70;99.90;;;;;;5037700;28;20563;-58
2023/09/02 02:26:42;;;;;;;12.33;2.87;;;13.60;99.90;;;;;;5039759;28;20418;-58
2023/09/02 02:29:07;;;;;;;2.83;2.17;;;13.60;99.90;;;;;;5040208;28;20320;-57
2023/09/02 02:31:34;;;;;;;7.90;2.60;;;13.60;99.90;;;;;;5040185;28;20171;-57
2023/09/02 02:34:00;;;;;;;5.30;2.43;;;13.60;99.90;;;;;;5043919;28;20199;-58
2023/09/02 02:36:26;;;;;;;4.10;2.93;;;13.60;99.90;;;;;;5037131;28;20803;-59
2023/09/02 02:38:51;;;;;;;5.23;2.60;;;13.60;99.90;;;;;;5038875;28;20441;-57
2023/09/02 02:41:17;;;;;;;2.77;2.00;;;13.50;99.90;;;;;;5033253;28;20636;-59
2023/09/02 02:43:42;;;;;;;4.40;2.70;;;13.50;99.90;;;;;;5041979;28;20231;-58
2023/09/02 02:46:08;;;;;;;3.77;2.43;;;13.50;99.90;;;;;;5045471;28;20685;-57
2023/09/02 02:48:34;;;;;;;3.40;2.20;;;13.40;99.90;;;;;;5035628;28;20175;-57
2023/09/02 02:50:59;;;;;;;3.20;2.50;;;13.40;99.90;;;;;;5041197;28;20183;-58
2023/09/02 02:53:25;;;;;;;5.40;2.40;;;13.40;99.90;;;;;;5044488;28;20253;-58
2023/09/02 02:55:51;;;;;;;3.23;2.50;;;13.40;99.90;;;;;;5040355;28;20548;-58
2023/09/02 02:58:17;;;;;;;3.40;2.53;;;13.40;99.90;;;;;;5042837;28;20433;-57
2023/09/02 03:00:43;;;;;;;2.83;2.50;;;13.30;99.90;;;;;;5043456;28;20187;-59
2023/09/02 03:03:10;;;;;;;4.57;3.13;;;13.30;99.90;;;;;;5046201;28;20493;-57
2023/09/02 03:05:39;;;;;;;3.90;2.57;;;13.30;99.90;;;;;;5038113;28;20510;-58
2023/09/02 03:08:05;;;;;;;3.43;2.53;;;13.30;99.90;;;;;;5037385;28;21039;-57
2023/09/02 03:10:33;;;;;;;4.53;2.43;;;13.30;99.90;;;;;;5041967;28;21012;-57
2023/09/02 03:12:59;;;;;;;4.53;2.43;;;13.20;99.90;;;;;;5049285;28;20461;-58
2023/09/02 03:15:25;;;;;;;6.20;2.83;;;13.20;99.90;;;;;;5044623;28;20441;-58
2023/09/02 03:17:51;;;;;;;2.70;2.50;;;13.20;99.90;;;;;;5045883;28;20494;-58
2023/09/02 03:20:16;;;;;;;4.37;3.00;;;13.20;99.90;;;;;;5049825;28;20175;-58
2023/09/02 03:22:42;;;;;;;2.77;2.30;;;13.20;99.90;;;;;;5045145;28;20696;-58
2023/09/02 03:25:08;;;;;;;4.47;2.73;;;13.10;99.90;;;;;;5043621;28;20183;-57
2023/09/02 03:27:41;;;;;;;3.90;2.97;;;13.10;99.90;;;;;;5045481;28;20179;-57
2023/09/02 03:30:07;;;;;;;4.80;2.20;;;13.10;99.90;;;;;;5044935;28;20476;-57
2023/09/02 03:32:34;;;;;;;3.87;2.30;;;13.10;99.90;;;;;;5043308;28;20441;-59
2023/09/02 03:35:00;;;;;;;5.83;2.50;;;13.00;99.90;;;;;;5048393;28;20438;-59
2023/09/02 03:37:26;;;;;;;4.97;2.87;;;13.10;99.90;;;;;;5048755;28;20446;-57
2023/09/02 03:39:53;;;;;;;3.53;2.47;;;13.10;99.90;;;;;;5044099;28;20245;-58
2023/09/02 03:42:19;;;;;;;4.40;2.60;;;13.00;99.90;;;;;;5041893;28;20882;-59
2023/09/02 03:44:45;;;;;;;4.20;2.60;;;13.00;99.90;;;;;;5040383;28;20544;-59
2023/09/02 03:47:10;;;;;;;4.33;2.93;;;13.00;99.90;;;;;;5046021;28;20703;-58
2023/09/02 03:49:36;;;;;;;6.37;3.37;;;13.00;99.90;;;;;;5044341;28;20191;-58
2023/09/02 03:52:02;;;;;;;4.00;2.83;;;12.90;99.90;;;;;;5047670;28;20540;-58
2023/09/02 03:54:27;;;;;;;2.80;2.47;;;12.90;99.90;;;;;;5037898;28;20242;-59
2023/09/02 03:56:53;;;;;;;4.13;2.60;;;12.90;99.90;;;;;;5041085;28;20175;-58
2023/09/02 03:59:19;;;;;;;5.53;2.93;;;12.90;99.90;;;;;;5042470;28;20195;-58
2023/09/02 04:01:45;;;;;;;6.47;2.80;;;12.90;99.90;;;;;;5044575;28;20199;-58
2023/09/02 04:04:10;;;;;;;4.30;2.70;;;12.90;99.90;;;;;;5042336;28;20512;-58
2023/09/02 04:06:38;;;;;;;6.73;2.93;;;12.80;99.90;;;;;;5043309;28;21073;-58
2023/09/02 04:09:05;;;;;;;3.53;2.67;;;12.80;99.90;;;;;;5043425;28;20189;-58
2023/09/02 04:11:31;;;;;;;2.50;2.30;;;12.80;99.90;;;;;;5050081;28;20966;-58
2023/09/02 04:13:56;;;;;;;4.10;2.90;;;12.80;99.90;;;;;;5046845;28;20449;-58
2023/09/02 04:16:22;;;;;;;3.87;2.57;;;12.80;99.90;;;;;;5045853;28;20211;-58
2023/09/02 04:18:48;;;;;;;8.73;2.37;;;12.80;99.90;;;;;;5044345;28;20270;-58
2023/09/02 04:21:13;;;;;;;2.63;2.20;;;12.70;99.90;;;;;;5043394;28;20627;-57
2023/09/02 04:23:41;;;;;;;5.00;2.60;;;12.70;99.90;;;;;;5047407;28;22381;-58
2023/09/02 04:26:07;;;;;;;3.27;2.63;;;12.70;99.90;;;;;;5044532;28;20164;-59
2023/09/02 04:28:32;;;;;;;4.37;2.63;;;12.70;99.90;;;;;;5040268;28;20479;-58
2023/09/02 04:30:59;;;;;;;7.17;3.60;;;12.70;99.90;;;;;;5044090;28;20702;-59
2023/09/02 04:33:25;;;;;;;5.53;3.10;;;12.70;99.90;;;;;;5045849;28;20862;-58
2023/09/02 04:35:51;;;;;;;22.57;4.80;;;12.70;99.90;;;;;;5038345;28;21172;-58
2023/09/02 04:38:16;;;;;;;9.20;3.60;;;12.70;99.90;;;;;;5038262;28;20432;-57
2023/09/02 04:40:44;;;;;;;5.33;3.20;;;12.70;99.90;;;;;;5043042;28;21136;-58
2023/09/02 04:43:11;;;;;;;6.60;3.60;;;12.70;99.90;;;;;;5044391;28;20286;-58
2023/09/02 04:45:39;;;;;;;6.97;3.70;;;12.70;99.90;;;;;;5041984;28;20546;-58
2023/09/02 04:48:06;;;;;;;9.47;3.03;;;12.70;99.90;;;;;;5041950;28;20901;-59
2023/09/02 04:50:33;;;;;;;10.27;3.30;;;12.70;99.90;;;;;;5047182;28;20475;-58
2023/09/02 04:52:59;;;;;;;4.30;3.00;;;12.70;99.90;;;;;;5040133;28;20491;-58
2023/09/02 04:55:25;;;;;;;5.10;2.87;;;12.60;99.90;;;;;;5038220;28;20529;-58
2023/09/02 04:57:52;;;;;;;31.23;4.40;;;12.60;99.90;;;;;;5045842;28;20520;-58
2023/09/02 05:00:18;;;;;;;6.77;3.40;;;12.60;99.90;;;;;;5037814;28;20438;-59
2023/09/02 05:02:47;;;;;;;10.40;3.93;;;12.60;99.90;;;;;;5047394;28;20465;-58
2023/09/02 05:05:17;;;;;;;3.67;3.20;;;12.60;99.90;;;;;;5042485;28;20426;-58
2023/09/02 05:07:43;;;;;;;6.63;3.40;;;12.60;99.90;;;;;;5044938;28;20417;-59
2023/09/02 05:10:09;;;;;;;11.13;4.23;;;12.60;99.90;;;;;;5041142;28;20512;-59
2023/09/02 05:12:36;;;;;;;5.03;3.37;;;12.60;99.90;;;;;;5041623;28;20933;-58
2023/09/02 05:15:02;;;;;;;79.20;6.80;;;12.60;99.90;;;;;;5038907;28;20439;-58
2023/09/02 05:17:29;;;;;;;8.70;3.80;;;12.60;99.90;;;;;;5044591;28;20509;-58
2023/09/02 05:19:55;;;;;;;9.77;3.83;;;12.60;99.90;;;;;;5041410;28;20422;-58
2023/09/02 05:22:20;;;;;;;13.30;3.50;;;12.60;99.90;;;;;;5042377;28;20838;-59
2023/09/02 05:24:46;;;;;;;2.97;2.67;;;12.60;99.90;;;;;;5043372;28;20203;-58
2023/09/02 05:27:13;;;;;;;3.77;2.80;;;12.60;99.90;;;;;;5045519;28;20545;-59
2023/09/02 05:29:39;;;;;;;3.13;2.83;;;12.60;99.90;;;;;;5043736;28;20620;-58
2023/09/02 05:32:05;;;;;;;2.70;2.50;;;12.70;99.90;;;;;;5040859;28;20465;-59
2023/09/02 05:34:31;;;;;;;4.90;3.30;;;12.70;99.90;;;;;;5040300;28;20684;-58
2023/09/02 05:36:56;;;;;;;3.93;3.07;;;12.80;99.90;;;;;;5044236;28;20434;-59
2023/09/02 05:39:22;;;;;;;3.77;3.30;;;12.80;99.90;;;;;;5042326;28;20183;-58
2023/09/02 05:41:48;;;;;;;3.47;2.97;;;12.80;99.90;;;;;;5044941;28;20178;-58
2023/09/02 05:44:13;;;;;;;4.60;3.17;;;12.80;99.90;;;;;;5044939;28;20256;-58
2023/09/02 05:46:39;;;;;;;5.37;3.40;;;12.90;99.90;;;;;;5042623;28;20179;-59
2023/09/02 05:49:05;;;;;;;8.30;3.40;;;12.90;99.90;;;;;;5041962;28;20178;-59
2023/09/02 05:51:30;;;;;;;6.37;4.13;;;12.90;99.90;;;;;;5046390;28;20186;-59
2023/09/02 05:53:57;;;;;;;11.00;3.60;;;12.90;99.90;;;;;;5044960;28;20202;-59
2023/09/02 05:56:23;;;;;;;4.30;3.20;;;12.90;99.90;;;;;;5036811;28;20182;-59
2023/09/02 05:58:48;;;;;;;4.40;3.53;;;12.90;99.90;;;;;;5042344;28;20433;-59
2023/09/02 06:01:14;;;;;;;4.93;3.20;;;12.90;99.90;;;;;;5045029;28;20191;-59
2023/09/02 06:03:41;;;;;;;5.03;2.90;;;13.00;99.90;;;;;;5044810;28;20260;-59
2023/09/02 06:06:11;;;;;;;4.40;2.43;;;13.00;99.90;;;;;;5046267;28;20179;-59
2023/09/02 06:08:37;;;;;;;3.30;2.87;;;13.00;99.90;;;;;;5043108;28;20433;-59
2023/09/02 06:11:03;;;;;;;7.23;3.23;;;13.10;99.90;;;;;;5042003;28;20433;-59
2023/09/02 06:13:29;;;;;;;4.87;3.03;;;13.10;99.90;;;;;;5037147;28;20192;-59
2023/09/02 06:16:02;;;;;;;4.17;3.40;;;13.10;99.90;;;;;;5040331;28;20434;-59
2023/09/02 06:18:28;;;;;;;3.63;2.83;;;13.20;99.90;;;;;;5042943;28;20241;-59
2023/09/02 06:20:54;;;;;;;4.60;3.00;;;13.30;99.90;;;;;;5044686;28;20437;-59
2023/09/02 06:23:20;;;;;;;5.47;3.30;;;13.30;99.90;;;;;;5041066;28;20522;-58
2023/09/02 06:25:55;;;;;;;4.27;3.27;;;13.40;99.90;;;;;;5044797;28;20884;-59
2023/09/02 06:28:20;;;;;;;3.53;3.17;;;13.50;99.90;;;;;;5038620;28;20189;-58
2023/09/02 06:30:46;;;;;;;5.30;3.70;;;13.60;99.90;;;;;;5033685;28;20442;-58
2023/09/02 06:33:11;;;;;;;3.50;3.17;;;13.70;99.90;;;;;;5041347;28;20202;-59
2023/09/02 06:35:37;;;;;;;4.13;2.87;;;13.80;99.90;;;;;;5038564;28;20209;-57
2023/09/02 06:38:03;;;;;;;3.20;2.60;;;13.90;99.90;;;;;;5023783;28;20190;-58
2023/09/02 06:40:32;;;;;;;2.97;2.40;;;14.00;99.90;;;;;;5034996;28;20203;-58
2023/09/02 06:42:57;;;;;;;3.53;2.73;;;14.00;99.90;;;;;;5030192;28;20289;-60
2023/09/02 06:45:29;;;;;;;4.80;3.40;;;14.10;99.90;;;;;;5026898;28;20421;-62
2023/09/02 06:47:55;;;;;;;2.80;2.43;;;14.20;99.90;;;;;;5035226;28;20190;-58
2023/09/02 06:50:20;;;;;;;7.30;3.00;;;14.30;99.90;;;;;;5040248;28;20490;-56
2023/09/02 06:52:46;;;;;;;6.50;4.50;;;14.40;99.90;;;;;;5039680;28;20208;-57
2023/09/02 06:55:16;;;;;;;6.50;3.60;;;14.40;99.90;;;;;;5031200;28;20336;-58
2023/09/02 06:57:42;;;;;;;6.53;3.37;;;14.50;99.90;;;;;;5037402;28;20183;-57
2023/09/02 07:00:09;;;;;;;7.20;4.23;;;14.60;99.90;;;;;;5034720;28;21061;-58
2023/09/02 07:02:34;;;;;;;10.50;4.73;;;14.70;99.90;;;;;;5031078;28;20438;-58
2023/09/02 07:05:00;;;;;;;6.00;4.30;;;14.80;99.90;;;;;;5030879;28;21323;-57
2023/09/02 07:07:26;;;;;;;11.47;4.23;;;14.80;99.90;;;;;;5038933;28;20627;-58
2023/09/02 07:09:52;;;;;;;5.87;4.00;;;15.00;99.90;;;;;;5034787;28;20188;-59
2023/09/02 07:12:18;;;;;;;7.27;3.27;;;15.00;99.90;;;;;;5033387;28;20485;-57
2023/09/02 07:14:43;;;;;;;10.87;3.60;;;15.10;99.90;;;;;;5039877;28;20957;-58
2023/09/02 07:17:09;;;;;;;5.87;4.27;;;15.20;99.90;;;;;;5037169;28;20625;-59
2023/09/02 07:19:34;;;;;;;6.93;3.67;;;15.30;99.90;;;;;;5036984;28;20264;-55
2023/09/02 07:22:00;;;;;;;7.93;4.57;;;15.30;99.90;;;;;;5035870;28;20184;-58
2023/09/02 07:24:25;;;;;;;4.70;3.20;;;15.40;99.90;;;;;;5037640;28;20214;-59
2023/09/02 07:26:51;;;;;;;5.00;2.90;;;15.50;99.90;;;;;;5034721;28;20187;-57
2023/09/02 07:29:17;;;;;;;5.83;3.10;;;15.60;99.90;;;;;;5032955;28;20675;-59
2023/09/02 07:31:42;;;;;;;14.13;4.00;;;15.80;99.90;;;;;;5031430;28;20187;-57
2023/09/02 07:34:09;;;;;;;5.60;3.43;;;15.90;99.90;;;;;;5034660;28;20211;-59
2023/09/02 07:36:34;;;;;;;10.23;3.97;;;15.90;99.90;;;;;;5035851;28;20279;-60
2023/09/02 07:39:00;;;;;;;6.63;3.63;;;16.00;99.90;;;;;;5034150;28;20529;-60
2023/09/02 07:41:25;;;;;;;5.10;3.20;;;16.10;99.90;;;;;;5034671;28;20707;-57
2023/09/02 07:43:51;;;;;;;4.50;3.00;;;16.20;99.90;;;;;;5034265;28;20218;-57
2023/09/02 07:46:17;;;;;;;6.63;3.63;;;16.30;99.90;;;;;;5032582;28;20181;-57
2023/09/02 07:48:43;;;;;;;8.40;3.60;;;16.40;99.90;;;;;;5039148;28;20170;-57
2023/09/02 07:51:09;;;;;;;8.20;3.73;;;16.50;99.90;;;;;;5037776;28;20182;-57
2023/09/02 07:53:34;;;;;;;15.20;3.90;;;16.50;99.90;;;;;;5037202;28;20465;-57
2023/09/02 07:56:00;;;;;;;7.20;3.50;;;16.60;99.90;;;;;;5037499;28;20190;-57
2023/09/02 07:58:26;;;;;;;7.20;3.80;;;16.70;99.90;;;;;;5041425;28;20223;-57
2023/09/02 08:00:56;;;;;;;5.87;3.80;;;16.70;99.90;;;;;;5042829;28;20196;-56
2023/09/02 08:03:21;;;;;;;7.33;3.33;;;16.80;99.90;;;;;;5037437;28;20215;-56
2023/09/02 08:05:47;;;;;;;6.03;3.70;;;16.90;99.90;;;;;;5036319;28;20473;-60
2023/09/02 08:08:13;;;;;;;11.97;6.10;;;17.00;99.90;;;;;;5035385;28;20176;-61
2023/09/02 08:10:39;;;;;;;4.80;3.90;;;17.10;99.90;;;;;;5035959;28;20229;-60
2023/09/02 08:13:05;;;;;;;4.60;3.37;;;17.20;99.90;;;;;;5034245;28;21560;-64
2023/09/02 08:15:30;;;;;;;5.63;3.53;;;17.40;99.90;;;;;;5039458;28;20184;-61
2023/09/02 08:17:56;;;;;;;4.60;4.00;;;17.50;99.90;;;;;;5040030;28;20179;-59
2023/09/02 08:20:22;;;;;;;4.70;3.50;;;17.60;99.90;;;;;;5041142;28;20179;-62
2023/09/02 08:22:47;;;;;;;5.20;3.60;;;17.70;99.90;;;;;;5036148;28;20205;-59
2023/09/02 08:25:13;;;;;;;6.80;3.87;;;17.80;99.90;;;;;;5040520;28;20273;-58
2023/09/02 08:27:42;;;;;;;8.00;4.00;;;17.90;99.90;;;;;;5038443;28;20548;-59
2023/09/02 08:30:08;;;;;;;7.77;3.40;;;18.00;99.90;;;;;;5040301;28;20202;-59
2023/09/02 08:32:34;;;;;;;7.70;4.03;;;18.20;99.90;;;;;;5040657;28;20457;-59
2023/09/02 08:34:59;;;;;;;4.27;3.50;;;18.30;99.90;;;;;;5043430;28;20186;-58
2023/09/02 08:37:25;;;;;;;13.20;3.53;;;18.40;99.90;;;;;;5047871;28;20191;-62
2023/09/02 08:39:53;;;;;;;6.60;3.40;;;18.60;99.90;;;;;;5040129;28;20656;-59
2023/09/02 08:42:19;;;;;;;4.37;3.17;;;18.70;99.90;;;;;;5042083;28;20179;-59
2023/09/02 08:44:47;;;;;;;10.13;3.30;;;18.80;99.90;;;;;;5042382;28;20467;-60
2023/09/02 08:47:15;;;;;;;8.80;3.23;;;18.90;99.90;;;;;;5041166;28;20452;-60
2023/09/02 08:49:41;;;;;;;4.63;3.20;;;19.00;99.90;;;;;;5040600;28;20662;-58
2023/09/02 08:52:08;;;;;;;6.10;3.47;;;19.10;99.90;;;;;;5045549;28;20929;-59
2023/09/02 08:54:34;;;;;;;8.47;3.30;;;19.30;99.90;;;;;;5037219;28;20669;-62
2023/09/02 08:57:01;;;;;;;4.03;3.60;;;19.40;99.90;;;;;;5042974;28;20437;-58
2023/09/02 08:59:28;;;;;;;3.70;3.10;;;19.60;99.90;;;;;;5044839;28;20434;-60
2023/09/02 09:01:56;;;;;;;6.83;3.13;;;19.70;99.90;;;;;;5045587;28;20445;-59
2023/09/02 09:04:22;;;;;;;8.03;3.47;;;19.80;99.90;;;;;;5037084;28;20476;-59
2023/09/02 09:06:48;;;;;;;6.30;3.70;;;20.00;99.90;;;;;;5035598;28;20521;-60
2023/09/02 09:09:17;;;;;;;4.03;3.40;;;20.00;99.90;;;;;;5032396;28;20800;-59
2023/09/02 09:11:43;;;;;;;5.00;2.87;;;20.20;99.90;;;;;;5038927;28;20491;-62
2023/09/02 09:14:15;;;;;;;3.97;2.50;;;20.30;99.90;;;;;;5038494;28;20448;-60
2023/09/02 09:16:42;;;;;;;3.13;2.70;;;20.40;99.90;;;;;;5039566;28;20418;-62
2023/09/02 09:19:07;;;;;;;3.73;2.63;;;20.60;99.90;;;;;;5030773;28;21012;-59
2023/09/02 09:21:33;;;;;;;4.63;2.87;;;20.70;99.90;;;;;;5043851;28;20425;-61
2023/09/02 09:23:59;;;;;;;4.33;2.50;;;20.80;99.90;;;;;;5041103;28;20203;-59
2023/09/02 09:26:25;;;;;;;4.50;3.00;;;20.90;99.90;;;;;;5033141;28;20183;-59
2023/09/02 09:28:51;;;;;;;6.37;2.80;;;21.00;99.90;;;;;;5035727;28;20183;-63
2023/09/02 09:31:18;;;;;;;6.23;2.93;;;21.20;99.90;;;;;;5041456;28;20625;-60
2023/09/02 09:34:01;;;;;;;4.67;2.97;;;21.30;99.90;;;;;;5024719;28;20457;-62
2023/09/02 09:36:29;;;;;;;6.50;2.70;;;21.40;99.90;;;;;;5030460;28;20444;-58
2023/09/02 09:39:03;;;;;;;5.23;2.17;;;21.50;99.90;;;;;;5041282;28;20437;-59
2023/09/02 09:41:29;;;;;;;6.20;2.57;;;21.60;99.90;;;;;;5042358;28;20520;-60
2023/09/02 09:44:14;;;;;;;2.80;2.10;;;21.60;93.90;;;;;;5041547;28;20576;-61
2023/09/02 09:46:43;;;;;;;3.10;2.20;;;21.70;92.70;;;;;;5036325;28;20191;-61
2023/09/02 09:49:27;;;;;;;2.90;2.13;;;21.80;91.80;;;;;;5040383;28;20979;-60
2023/09/02 09:51:59;;;;;;;8.17;2.33;;;21.90;91.50;;;;;;5041939;28;20421;-59
2023/09/02 09:54:37;;;;;;;2.50;2.27;;;21.90;90.60;;;;;;5036820;28;20462;-58
2023/09/02 09:57:05;;;;;;;3.93;2.17;;;22.10;93.40;;;;;;5042541;28;20584;-59
2023/09/02 09:59:31;;;;;;;3.60;2.10;;;22.20;92.90;;;;;;5045015;28;20452;-60
2023/09/02 10:02:00;;;;;;;5.20;2.30;;;22.30;91.70;;;;;;5039284;28;20952;-59
2023/09/02 10:04:26;;;;;;;5.20;2.83;;;22.40;86.20;;;;;;5038064;28;20239;-60
2023/09/02 10:06:57;;;;;;;5.30;2.10;;;22.60;82.50;;;;;;5042701;28;20438;-62
2023/09/02 10:09:23;;;;;;;2.50;2.17;;;22.70;82.20;;;;;;5046573;28;20425;-61
2023/09/02 10:11:48;;;;;;;8.60;2.63;;;22.80;81.00;;;;;;5040349;28;21000;-59
2023/09/02 10:14:15;;;;;;;2.80;2.40;;;22.90;80.50;;;;;;5043767;28;20199;-60
2023/09/02 10:16:44;;;;;;;4.20;2.23;;;23.10;78.60;;;;;;5045176;28;20190;-59
2023/09/02 10:19:10;;;;;;;3.47;2.70;;;23.20;73.00;;;;;;5046959;28;20566;-59
2023/09/02 10:21:39;;;;;;;2.23;2.03;;;23.40;66.10;;;;;;5044576;28;20440;-59
2023/09/02 10:24:09;;;;;;;3.57;2.50;;;23.40;63.00;;;;;;5047361;28;20549;-59
2023/09/02 10:26:48;;;;;;;1.90;1.77;;;23.50;64.20;;;;;;5048870;28;20436;-60
2023/09/02 10:29:18;;;;;;;2.63;2.20;;;23.60;62.80;;;;;;5045029;28;20852;-58
2023/09/02 10:31:51;;;;;;;2.33;1.83;;;23.70;64.10;;;;;;5048123;28;20838;-59
2023/09/02 10:34:45;;;;;;;4.87;2.30;;;23.80;65.60;;;;;;5048323;28;21098;-60
2023/09/02 10:37:14;;;;;;;4.17;2.13;;;24.00;65.30;;;;;;5042269;28;20520;-61
2023/09/02 10:39:57;;;;;;;6.17;2.10;;;24.10;67.90;;;;;;5049532;28;20485;-60
2023/09/02 10:42:24;;;;;;;2.50;1.80;;;24.20;71.40;;;;;;5039907;28;20526;-60
2023/09/02 10:44:52;;;;;;;3.57;1.97;;;24.30;65.70;;;;;;5044042;28;20469;-60
2023/09/02 10:47:18;;;;;;;3.00;2.47;;;24.30;68.30;;;;;;5037461;28;20446;-61
2023/09/02 10:49:44;;;;;;;2.30;2.00;;;24.40;65.70;;;;;;5045568;28;20441;-60
2023/09/02 10:52:11;;;;;;;3.43;2.13;;;24.40;63.10;;;;;;5048796;28;20178;-60
2023/09/02 10:54:58;;;;;;;2.20;1.83;;;24.40;62.70;;;;;;5039567;28;20468;-62
2023/09/02 10:57:24;;;;;;;1.83;1.70;;;24.50;61.40;;;;;;5042987;28;20939;-61
2023/09/02 10:59:49;;;;;;;4.07;1.63;;;24.50;60.80;;;;;;5040075;28;20444;-61
2023/09/02 11:02:35;;;;;;;2.37;1.77;;;24.60;59.80;;;;;;5039138;28;20193;-61
2023/09/02 11:05:01;;;;;;;3.30;2.20;;;24.70;59.10;;;;;;5046366;28;20217;-61
2023/09/02 11:07:27;;;;;;;3.53;1.80;;;24.80;59.40;;;;;;5038770;28;20437;-61
2023/09/02 11:09:52;;;;;;;4.23;1.90;;;24.90;59.20;;;;;;5042591;28;20545;-62
2023/09/02 11:12:18;;;;;;;6.43;2.10;;;25.00;59.50;;;;;;5040352;28;20700;-61
2023/09/02 11:15:09;;;;;;;3.03;1.77;;;25.10;58.50;;;;;;5045258;28;20738;-61
2023/09/02 11:17:35;;;;;;;21.53;6.10;;;25.10;58.50;;;;;;5043339;28;20175;-61
2023/09/02 11:20:12;;;;;;;7.13;3.33;;;25.20;58.70;;;;;;5044899;28;20527;-60
2023/09/02 11:22:55;;;;;;;16.50;5.30;;;25.30;57.40;;;;;;5040416;28;20504;-60
2023/09/02 11:25:33;;;;;;;2.97;1.93;;;25.40;58.20;;;;;;5044837;28;20505;-61
2023/09/02 11:28:09;;;;;;;11.90;3.60;;;25.60;57.80;;;;;;5041499;28;20473;-60
2023/09/02 11:30:39;;;;;;;5.27;2.90;;;25.70;56.90;;;;;;5044860;28;20441;-60
2023/09/02 11:33:06;;;;;;;3.30;2.10;;;25.80;57.50;;;;;;5039529;28;20452;-59
2023/09/02 11:35:34;;;;;;;3.37;1.93;;;25.90;56.00;;;;;;5034896;28;20430;-59
2023/09/02 11:38:01;;;;;;;19.13;5.27;;;26.00;55.70;;;;;;5042895;28;20417;-62
2023/09/02 11:40:28;;;;;;;3.63;2.60;;;26.10;55.20;;;;;;5029216;28;20499;-61
2023/09/02 11:43:01;;;;;;;1.87;1.67;;;26.30;56.90;;;;;;5032167;28;20485;-59
2023/09/02 11:45:32;;;;;;;2.70;1.67;;;26.50;54.30;;;;;;5027002;28;21560;-64
2023/09/02 11:47:59;;;;;;;4.50;1.80;;;26.50;54.60;;;;;;5029835;28;20442;-62
2023/09/02 11:50:25;;;;;;;6.03;2.03;;;26.50;53.80;;;;;;5032526;28;20444;-60
2023/09/02 11:52:56;;;;;;;2.40;1.50;;;26.60;55.00;;;;;;5039450;28;20199;-60
2023/09/02 11:55:22;;;;;;;6.47;3.30;;;26.80;54.70;;;;;;5040920;28;20479;-60
2023/09/02 11:57:48;;;;;;;9.40;3.87;;;27.00;54.80;;;;;;5034054;28;20214;-61
2023/09/02 12:02:58;;;;;;;4.30;2.10;;;27.10;54.20;;;;;;5028976;28;22258;-59
2023/09/02 12:05:24;;;;;;;2.40;1.77;;;27.30;50.70;;;;;;5030019;28;20308;-62
2023/09/02 12:07:51;;;;;;;3.63;1.70;;;27.30;50.90;;;;;;5035200;28;20278;-62
2023/09/02 12:10:18;;;;;;;5.43;2.30;;;27.50;51.00;;;;;;5037815;28;20203;-61
2023/09/02 12:12:48;;;;;;;3.70;1.87;;;27.60;51.30;;;;;;5038770;28;20205;-61
2023/09/02 12:15:15;;;;;;;8.17;2.13;;;27.70;50.80;;;;;;5032186;28;20563;-60
2023/09/02 12:17:42;;;;;;;6.97;3.30;;;27.80;50.90;;;;;;5030643;28;20178;-61
2023/09/02 12:20:11;;;;;;;2.30;1.87;;;28.00;52.40;;;;;;5025770;28;20175;-62
2023/09/02 12:22:37;;;;;;;4.67;2.40;;;28.20;51.60;;;;;;5040343;28;20190;-60
2023/09/02 12:25:13;;;;;;;2.30;1.70;;;28.40;51.20;;;;;;5042916;28;20274;-58
2023/09/02 12:27:39;;;;;;;2.00;1.70;;;28.50;48.10;;;;;;5034754;28;20170;-60
2023/09/02 12:30:05;;;;;;;7.90;1.97;;;28.50;49.80;;;;;;5035893;28;20255;-61
2023/09/02 12:32:30;;;;;;;3.67;1.93;;;28.60;50.70;;;;;;5038748;28;20268;-64
2023/09/02 12:34:56;;;;;;;3.13;1.87;;;28.70;49.50;;;;;;5037360;28;20175;-60
2023/09/02 12:37:22;;;;;;;2.37;2.17;;;28.80;49.30;;;;;;5039190;28;20563;-62
2023/09/02 12:39:49;;;;;;;2.97;2.10;;;29.00;49.80;;;;;;5035213;28;20186;-61
2023/09/02 12:42:15;;;;;;;1.92;1.73;;;29.00;49.20;;;;;;5041713;28;20410;-59
2023/09/02 12:44:48;;;;;;;1.88;1.75;;;28.90;49.00;;;;;;5035146;28;20195;-60
2023/09/02 12:47:23;;;;;;;3.35;1.92;;;29.00;49.70;;;;;;5037833;28;20622;-59
2023/09/02 12:49:51;;;;;;;3.10;1.85;;;29.10;49.20;;;;;;5034980;28;20217;-62